Terminal Aerodrome Forecast
Issued by NWS

Home | Current Version | Previous Version | Text Only | Print | Product List | Glossary On
Versions: 1 2 3 4 5 6 7 8 9 10 11 12 13 14 15
000
FTUS42 KGSP 211700
TAFAND
TAF
KAND 211728Z 2118/2218 26010G18KT P6SM FEW250
     FM212000 27012G20KT P6SM SCT045
     FM220000 30008KT P6SM FEW060
     FM220600 34004KT P6SM SKC=

USA.gov is the U.S. government's official web portal to all federal, state and local government web resources and services.